Time;durP1;ratioP1;P1;durP2;ratioP2;P2;SDS_P1;SDS_P2;PMS_P1;PMS_P2;Temp;Humidity;BMP_temperature;BMP_pressure;BME280_temperature;BME280_humidity;BME280_pressure;Samples;Min_cycle;Max_cycle;Signal;HPM_P1;HPM_P2
2023/07/08 00:00:07;;;;;;;4.53;4.20;;;20.60;99.90;;;;;;4982949;28;20190;-82
2023/07/08 00:02:33;;;;;;;4.20;4.10;;;20.70;99.90;;;;;;4979821;28;20457;-82
2023/07/08 00:04:58;;;;;;;4.47;4.13;;;20.70;99.90;;;;;;4967623;28;20453;-81
2023/07/08 00:07:24;;;;;;;5.13;5.00;;;20.80;99.90;;;;;;4965225;28;20189;-80
2023/07/08 00:09:49;;;;;;;5.50;5.10;;;20.80;99.90;;;;;;4981093;28;20201;-81
2023/07/08 00:12:15;;;;;;;4.50;4.30;;;20.90;99.90;;;;;;4969904;28;20213;-82
2023/07/08 00:14:41;;;;;;;5.07;4.73;;;20.80;99.90;;;;;;4980945;28;20190;-82
2023/07/08 00:17:15;;;;;;;5.20;4.83;;;20.90;99.90;;;;;;4978105;28;20185;-82
2023/07/08 00:19:43;;;;;;;4.63;4.43;;;20.90;99.90;;;;;;4978496;28;20213;-82
2023/07/08 00:22:13;;;;;;;4.97;4.67;;;21.00;99.90;;;;;;4974947;28;20595;-82
2023/07/08 00:24:39;;;;;;;5.13;4.80;;;21.00;99.90;;;;;;4979375;28;20465;-82
2023/07/08 00:27:05;;;;;;;5.67;5.27;;;20.90;99.90;;;;;;4939647;28;1059776;-82
2023/07/08 00:29:30;;;;;;;5.00;4.60;;;20.90;99.90;;;;;;4981359;28;20209;-83
2023/07/08 00:31:56;;;;;;;4.90;4.60;;;20.80;99.90;;;;;;4977701;28;20457;-84
2023/07/08 00:34:21;;;;;;;4.77;4.50;;;20.80;99.90;;;;;;4981120;28;20182;-81
2023/07/08 00:36:47;;;;;;;5.10;4.80;;;20.70;99.90;;;;;;4975707;28;20201;-83
2023/07/08 00:39:17;;;;;;;4.73;4.43;;;20.70;99.90;;;;;;4976451;28;20182;-82
2023/07/08 00:41:43;;;;;;;4.80;4.67;;;20.70;99.90;;;;;;4972909;28;20214;-83
2023/07/08 00:44:11;;;;;;;5.00;4.70;;;20.70;99.90;;;;;;4976831;28;20433;-82
2023/07/08 00:46:58;;;;;;;4.30;4.20;;;20.80;99.90;;;;;;4975518;28;20460;-83
2023/07/08 00:49:23;;;;;;;5.10;4.80;;;20.80;99.90;;;;;;4975489;28;20436;-83
2023/07/08 00:51:49;;;;;;;4.77;4.53;;;20.80;99.90;;;;;;4973474;28;20442;-83
2023/07/08 00:54:18;;;;;;;4.67;4.57;;;20.80;99.90;;;;;;4979476;28;20440;-82
2023/07/08 00:56:48;;;;;;;5.00;4.80;;;20.80;99.90;;;;;;4974858;28;20245;-82
2023/07/08 00:59:47;;;;;;;4.93;4.73;;;20.90;99.90;;;;;;4982212;28;20425;-82
2023/07/08 01:02:16;;;;;;;5.17;4.97;;;21.00;99.90;;;;;;4976023;28;20468;-82
2023/07/08 01:05:14;;;;;;;4.80;4.60;;;21.00;99.90;;;;;;4972714;28;20486;-83
2023/07/08 01:07:42;;;;;;;5.00;4.70;;;21.00;99.90;;;;;;4959455;28;20449;-82
2023/07/08 01:10:12;;;;;;;4.80;4.60;;;21.00;99.90;;;;;;4976327;28;20475;-83
2023/07/08 01:12:42;;;;;;;4.53;4.00;;;21.10;99.90;;;;;;4986874;28;20437;-83
2023/07/08 01:15:09;;;;;;;4.73;4.37;;;21.20;99.90;;;;;;4991600;28;20429;-81
2023/07/08 01:17:35;;;;;;;4.67;4.57;;;21.10;99.90;;;;;;4983664;28;20433;-81
2023/07/08 01:20:05;;;;;;;4.93;4.57;;;21.20;99.90;;;;;;4974800;28;20500;-83
2023/07/08 01:22:35;;;;;;;5.40;4.87;;;21.30;99.90;;;;;;4965038;28;20282;-82
2023/07/08 01:25:03;;;;;;;4.30;4.17;;;21.40;99.90;;;;;;4963598;28;20515;-82
2023/07/08 01:27:32;;;;;;;4.07;4.07;;;21.40;99.90;;;;;;4973468;28;20479;-82
2023/07/08 01:29:58;;;;;;;4.63;4.43;;;21.40;99.90;;;;;;4975268;28;20437;-83
2023/07/08 01:32:24;;;;;;;4.40;4.27;;;21.40;99.90;;;;;;4986484;28;20441;-83
2023/07/08 01:34:59;;;;;;;4.43;4.30;;;21.30;99.90;;;;;;4974537;28;20448;-82
2023/07/08 01:37:29;;;;;;;4.97;4.70;;;21.30;99.90;;;;;;4982218;28;20457;-82
2023/07/08 01:39:55;;;;;;;5.33;5.23;;;21.40;99.90;;;;;;4970886;28;20470;-82
2023/07/08 01:42:20;;;;;;;6.97;6.50;;;21.40;99.90;;;;;;4969707;28;20637;-81
2023/07/08 01:44:47;;;;;;;4.07;3.97;;;21.40;99.90;;;;;;4959771;28;20449;-82
2023/07/08 01:47:20;;;;;;;4.80;4.50;;;21.30;99.90;;;;;;4978968;28;20197;-83
2023/07/08 01:49:47;;;;;;;6.07;4.97;;;21.20;99.90;;;;;;4971181;28;20471;-82
2023/07/08 01:52:17;;;;;;;4.60;4.40;;;21.20;99.90;;;;;;4972748;28;20430;-83
2023/07/08 01:54:43;;;;;;;4.50;4.30;;;21.40;99.90;;;;;;4975681;28;20529;-82
2023/07/08 01:57:08;;;;;;;4.80;4.50;;;21.50;99.90;;;;;;4969350;28;20461;-82
2023/07/08 01:59:34;;;;;;;4.60;4.47;;;21.40;99.90;;;;;;4969983;28;20183;-82
2023/07/08 02:02:00;;;;;;;4.90;4.60;;;21.40;99.90;;;;;;4973044;28;20205;-82
2023/07/08 02:04:30;;;;;;;4.97;4.77;;;21.50;99.90;;;;;;4964028;28;20220;-84
2023/07/08 02:06:59;;;;;;;4.70;4.60;;;21.50;99.90;;;;;;4973365;28;20437;-83
2023/07/08 02:09:25;;;;;;;4.30;4.00;;;21.40;99.50;;;;;;4980340;28;20426;-84
2023/07/08 02:11:52;;;;;;;5.33;4.93;;;21.40;99.40;;;;;;4973909;28;20478;-83
2023/07/08 02:14:18;;;;;;;4.40;4.10;;;21.50;99.30;;;;;;4976963;28;20773;-83
2023/07/08 02:16:46;;;;;;;4.30;3.90;;;21.60;99.00;;;;;;4975811;28;20441;-83
2023/07/08 02:19:11;;;;;;;4.40;4.30;;;21.60;99.00;;;;;;4983062;28;20182;-82
2023/07/08 02:21:37;;;;;;;5.17;4.83;;;21.50;98.90;;;;;;4982281;28;20909;-83
2023/07/08 02:24:03;;;;;;;5.00;4.60;;;21.50;98.90;;;;;;4973580;28;20174;-83
2023/07/08 02:26:31;;;;;;;4.70;4.50;;;21.50;99.40;;;;;;4977898;28;20433;-82
2023/07/08 02:28:58;;;;;;;4.17;4.00;;;21.50;99.10;;;;;;4979474;28;20472;-82
2023/07/08 02:31:26;;;;;;;4.97;4.57;;;21.40;99.30;;;;;;4977840;28;20488;-81
2023/07/08 02:33:53;;;;;;;4.77;4.63;;;21.50;99.30;;;;;;4974072;28;20524;-81
2023/07/08 02:36:19;;;;;;;3.90;3.70;;;21.50;99.20;;;;;;4968946;28;20449;-80
2023/07/08 02:38:44;;;;;;;4.23;4.07;;;21.60;99.10;;;;;;4977363;28;20433;-83
2023/07/08 02:41:11;;;;;;;5.10;4.70;;;21.60;99.00;;;;;;4978816;28;20507;-81
2023/07/08 02:43:37;;;;;;;5.00;4.60;;;21.60;98.70;;;;;;4968934;28;20191;-82
2023/07/08 02:46:03;;;;;;;4.73;4.60;;;21.60;99.00;;;;;;4978233;28;20624;-81
2023/07/08 02:48:28;;;;;;;4.40;4.23;;;21.60;99.00;;;;;;4978501;28;20449;-82
2023/07/08 02:51:02;;;;;;;4.90;4.53;;;21.60;98.60;;;;;;4977043;28;20586;-82
2023/07/08 02:53:28;;;;;;;3.90;3.70;;;21.70;98.40;;;;;;4967988;28;20187;-83
2023/07/08 02:55:54;;;;;;;4.30;4.10;;;21.70;98.20;;;;;;4968330;28;20491;-82
2023/07/08 02:58:19;;;;;;;4.57;4.30;;;21.60;98.40;;;;;;4974953;28;20524;-81
2023/07/08 03:00:45;;;;;;;4.37;4.07;;;21.60;98.70;;;;;;4975298;28;20214;-82
2023/07/08 03:03:11;;;;;;;4.90;4.70;;;21.50;99.00;;;;;;4981587;28;20174;-82
2023/07/08 03:05:36;;;;;;;5.33;5.03;;;21.50;98.70;;;;;;4982026;28;20173;-82
2023/07/08 03:08:02;;;;;;;5.17;4.73;;;21.30;98.80;;;;;;4985818;28;20170;-83
2023/07/08 03:10:27;;;;;;;4.23;4.10;;;21.40;99.10;;;;;;4984743;28;20186;-82
2023/07/08 03:12:53;;;;;;;4.60;4.40;;;21.50;98.80;;;;;;4982775;28;20178;-84
2023/07/08 03:15:19;;;;;;;4.80;4.70;;;21.60;98.70;;;;;;4984833;28;20190;-83
2023/07/08 03:17:45;;;;;;;5.00;4.70;;;21.50;98.10;;;;;;4983387;28;20183;-81
2023/07/08 03:20:11;;;;;;;5.40;4.60;;;21.40;98.40;;;;;;4982175;28;20204;-81
2023/07/08 03:22:37;;;;;;;4.47;4.17;;;21.40;98.30;;;;;;4977193;28;20457;-82
2023/07/08 03:25:03;;;;;;;4.37;4.23;;;21.50;98.20;;;;;;4985327;28;20185;-82
2023/07/08 03:27:29;;;;;;;4.33;4.13;;;21.50;98.30;;;;;;4983419;28;20496;-82
2023/07/08 03:29:54;;;;;;;5.17;4.87;;;21.50;98.20;;;;;;4985844;28;20421;-82
2023/07/08 03:32:20;;;;;;;4.90;4.60;;;21.40;98.40;;;;;;4983026;28;20217;-82
2023/07/08 03:34:45;;;;;;;5.77;5.47;;;21.30;98.90;;;;;;4986171;28;20192;-82
2023/07/08 03:37:11;;;;;;;5.43;4.30;;;21.30;99.10;;;;;;4983553;28;20895;-83
2023/07/08 03:39:36;;;;;;;4.07;3.87;;;21.40;98.80;;;;;;4983980;28;20201;-83
2023/07/08 03:42:03;;;;;;;4.60;4.40;;;21.30;99.00;;;;;;4984423;28;20228;-83
2023/07/08 03:44:30;;;;;;;5.10;4.83;;;21.30;98.90;;;;;;4979919;28;20189;-83
2023/07/08 03:46:55;;;;;;;4.03;3.97;;;21.20;99.50;;;;;;4985613;28;20457;-82
2023/07/08 03:49:23;;;;;;;5.13;4.70;;;21.10;99.50;;;;;;4979214;28;20503;-82
2023/07/08 03:51:51;;;;;;;4.30;4.20;;;21.10;99.70;;;;;;4981236;28;20391;-82
2023/07/08 03:54:18;;;;;;;4.83;4.60;;;21.10;99.90;;;;;;4984322;28;20437;-83
2023/07/08 03:56:43;;;;;;;4.67;4.57;;;21.10;99.90;;;;;;4985700;28;20461;-82
2023/07/08 03:59:09;;;;;;;4.50;4.40;;;21.10;99.90;;;;;;4985421;28;20521;-82
2023/07/08 04:01:35;;;;;;;4.83;4.63;;;21.00;99.90;;;;;;4985798;28;20221;-82
2023/07/08 04:04:00;;;;;;;5.13;4.90;;;20.70;99.90;;;;;;4982379;28;20194;-82
2023/07/08 04:06:28;;;;;;;5.20;4.87;;;20.70;99.90;;;;;;4982788;28;20197;-81
2023/07/08 04:08:54;;;;;;;4.83;4.73;;;20.80;99.90;;;;;;4979511;28;20186;-82
2023/07/08 04:11:22;;;;;;;5.20;4.90;;;20.50;99.90;;;;;;4984398;28;20451;-80
2023/07/08 04:13:48;;;;;;;4.83;4.73;;;20.30;99.90;;;;;;4977839;28;20201;-82
2023/07/08 04:16:29;;;;;;;5.03;4.70;;;20.30;99.90;;;;;;4989469;28;20444;-82
2023/07/08 04:18:55;;;;;;;4.80;4.70;;;20.40;99.90;;;;;;4972509;28;20434;-83
2023/07/08 04:21:22;;;;;;;5.30;5.10;;;20.50;99.90;;;;;;4980609;28;20623;-83
2023/07/08 04:23:51;;;;;;;5.23;4.80;;;20.60;99.90;;;;;;4974355;28;20469;-81
2023/07/08 04:26:18;;;;;;;5.40;4.73;;;20.40;99.90;;;;;;4991670;28;20445;-82
2023/07/08 04:28:44;;;;;;;5.53;5.00;;;20.60;99.90;;;;;;4979101;28;21132;-82
2023/07/08 04:31:10;;;;;;;4.87;4.60;;;20.70;99.90;;;;;;4984015;28;20442;-82
2023/07/08 04:33:35;;;;;;;4.80;4.50;;;20.70;99.90;;;;;;4974730;28;21023;-82
2023/07/08 04:36:01;;;;;;;5.20;4.73;;;20.60;99.90;;;;;;4980822;28;20288;-82
2023/07/08 04:38:27;;;;;;;5.07;4.70;;;20.60;99.90;;;;;;4971916;28;20205;-82
2023/07/08 04:40:53;;;;;;;5.03;4.80;;;20.70;99.90;;;;;;4971352;28;20272;-82
2023/07/08 04:43:20;;;;;;;5.57;5.07;;;20.70;99.90;;;;;;4972623;28;20735;-82
2023/07/08 04:45:52;;;;;;;5.43;5.23;;;20.90;99.90;;;;;;4980601;28;20456;-82
2023/07/08 04:48:21;;;;;;;6.10;5.20;;;21.00;99.90;;;;;;4984193;28;20464;-82
2023/07/08 04:50:49;;;;;;;5.40;5.00;;;21.20;99.90;;;;;;4989252;28;20477;-82
2023/07/08 04:53:15;;;;;;;5.07;4.77;;;21.40;99.90;;;;;;4986281;28;20545;-82
2023/07/08 04:55:44;;;;;;;5.30;5.03;;;21.70;99.90;;;;;;4991156;28;20402;-83
2023/07/08 04:58:10;;;;;;;5.80;5.60;;;21.90;99.90;;;;;;4980456;28;20418;-82
2023/07/08 05:00:35;;;;;;;5.40;5.10;;;22.10;99.90;;;;;;4976863;28;20599;-82
2023/07/08 05:03:01;;;;;;;5.23;5.03;;;22.20;99.80;;;;;;4974367;28;20205;-83
2023/07/08 05:05:27;;;;;;;5.33;5.10;;;22.60;99.00;;;;;;4974296;28;20191;-81
2023/07/08 05:07:53;;;;;;;6.63;6.13;;;22.80;97.90;;;;;;4971355;28;20457;-82
2023/07/08 05:10:19;;;;;;;5.77;5.47;;;22.90;97.60;;;;;;4974250;28;20197;-83
2023/07/08 05:12:45;;;;;;;4.73;4.63;;;22.90;96.90;;;;;;4967154;28;20241;-83
2023/07/08 05:15:12;;;;;;;8.23;5.33;;;22.60;97.00;;;;;;4975424;28;20433;-82
2023/07/08 05:17:38;;;;;;;5.10;4.83;;;22.70;97.30;;;;;;4974158;28;20482;-83
2023/07/08 05:20:07;;;;;;;5.00;4.80;;;22.90;97.40;;;;;;4957326;28;20430;-83
2023/07/08 05:22:33;;;;;;;6.27;5.67;;;23.20;96.90;;;;;;4969065;28;20484;-84
2023/07/08 05:24:59;;;;;;;4.77;4.57;;;23.10;96.20;;;;;;4974051;28;20456;-83
2023/07/08 05:27:25;;;;;;;5.43;5.13;;;22.90;96.60;;;;;;4987444;28;20532;-82
2023/07/08 05:29:51;;;;;;;5.30;5.10;;;23.30;96.30;;;;;;4989665;28;20185;-82
2023/07/08 05:32:17;;;;;;;4.57;4.30;;;23.50;96.10;;;;;;4990088;28;20441;-83
2023/07/08 05:34:43;;;;;;;5.20;4.90;;;23.50;96.90;;;;;;4975375;28;20181;-83
2023/07/08 05:37:10;;;;;;;5.00;4.80;;;23.80;97.00;;;;;;4988296;28;20433;-83
2023/07/08 05:39:35;;;;;;;4.60;4.50;;;23.60;97.60;;;;;;4985097;28;20449;-83
2023/07/08 05:42:01;;;;;;;5.17;5.00;;;23.60;97.60;;;;;;4988297;28;20488;-82
2023/07/08 05:44:26;;;;;;;5.50;5.20;;;23.60;98.10;;;;;;4981026;28;20182;-82
2023/07/08 05:46:52;;;;;;;5.20;5.03;;;23.80;97.90;;;;;;4983373;28;20561;-82
2023/07/08 05:49:17;;;;;;;5.23;4.93;;;24.10;98.00;;;;;;4980390;28;20190;-83
2023/07/08 05:51:44;;;;;;;5.50;5.30;;;24.40;97.60;;;;;;4977287;28;20191;-83
2023/07/08 05:54:10;;;;;;;4.90;4.70;;;24.60;97.00;;;;;;4981708;28;20241;-82
2023/07/08 05:56:36;;;;;;;4.97;4.73;;;25.00;96.40;;;;;;4978347;28;20433;-83
2023/07/08 05:59:01;;;;;;;4.13;4.03;;;25.30;95.60;;;;;;4982502;28;20452;-82
2023/07/08 06:01:27;;;;;;;4.73;4.43;;;25.70;94.70;;;;;;4975339;28;20252;-82
2023/07/08 06:03:53;;;;;;;5.03;4.73;;;25.60;94.30;;;;;;4978043;28;20197;-83
2023/07/08 06:06:18;;;;;;;4.80;4.60;;;26.20;92.70;;;;;;4963322;28;20236;-82
2023/07/08 06:08:44;;;;;;;5.73;5.53;;;26.80;91.30;;;;;;4979570;28;20535;-83
2023/07/08 06:11:09;;;;;;;4.80;4.60;;;27.10;89.10;;;;;;4970487;28;20193;-83
2023/07/08 06:13:35;;;;;;;4.90;4.60;;;27.60;86.00;;;;;;4963807;28;20170;-83
2023/07/08 06:16:00;;;;;;;4.97;4.73;;;27.70;83.30;;;;;;4979388;28;20216;-83
2023/07/08 06:18:26;;;;;;;4.60;4.20;;;28.00;81.00;;;;;;4986183;28;20194;-82
2023/07/08 06:20:56;;;;;;;10.20;5.50;;;28.10;77.80;;;;;;4982276;28;20213;-82
2023/07/08 06:23:22;;;;;;;4.70;4.50;;;28.30;76.60;;;;;;4978595;28;20174;-83
2023/07/08 06:25:48;;;;;;;4.27;4.17;;;28.50;75.30;;;;;;4982241;28;20449;-82
2023/07/08 06:28:14;;;;;;;5.17;4.87;;;29.10;73.00;;;;;;4985432;28;20310;-83
2023/07/08 06:30:39;;;;;;;4.97;4.50;;;29.50;69.80;;;;;;4977822;28;20251;-84
2023/07/08 06:33:05;;;;;;;5.60;5.10;;;29.70;67.90;;;;;;4979009;28;20501;-84
2023/07/08 06:35:31;;;;;;;4.23;4.10;;;30.00;67.00;;;;;;4976232;28;20212;-84
2023/07/08 06:37:56;;;;;;;4.90;4.80;;;30.60;63.20;;;;;;4976481;28;20198;-83
2023/07/08 06:40:22;;;;;;;5.00;4.70;;;30.80;60.30;;;;;;4979008;28;20198;-82
2023/07/08 06:42:47;;;;;;;5.03;4.73;;;30.30;60.00;;;;;;4964543;28;20284;-84
2023/07/08 06:45:13;;;;;;;5.03;4.73;;;30.90;59.20;;;;;;4975975;28;20440;-84
2023/07/08 06:47:39;;;;;;;5.03;4.93;;;31.40;58.10;;;;;;4975530;28;20305;-83
2023/07/08 06:50:06;;;;;;;4.43;4.33;;;31.30;57.60;;;;;;4969977;28;20298;-82
2023/07/08 06:52:34;;;;;;;4.90;4.80;;;31.50;57.00;;;;;;4976333;28;20240;-83
2023/07/08 06:55:01;;;;;;;5.63;5.30;;;32.00;56.10;;;;;;4975906;28;20549;-85
2023/07/08 06:57:26;;;;;;;4.70;4.60;;;32.20;55.50;;;;;;4973538;28;20469;-82
2023/07/08 06:59:52;;;;;;;5.37;5.13;;;32.70;54.80;;;;;;4974717;28;20468;-82
2023/07/08 07:02:17;;;;;;;4.40;4.20;;;33.10;53.80;;;;;;4959464;28;20264;-81
2023/07/08 07:04:43;;;;;;;4.77;4.47;;;33.70;52.60;;;;;;4975969;28;20208;-82
2023/07/08 07:07:09;;;;;;;5.50;5.13;;;33.90;51.70;;;;;;4970053;28;20192;-81
2023/07/08 07:09:35;;;;;;;5.80;5.50;;;34.20;51.40;;;;;;4971261;28;20232;-82
2023/07/08 07:12:01;;;;;;;5.50;5.30;;;34.60;50.80;;;;;;4962999;28;20228;-82
2023/07/08 07:14:27;;;;;;;5.73;5.23;;;35.10;50.30;;;;;;4971198;28;20186;-83
2023/07/08 07:16:52;;;;;;;4.63;4.33;;;35.60;49.60;;;;;;4974325;28;20612;-84
2023/07/08 07:19:18;;;;;;;5.03;4.83;;;35.70;48.50;;;;;;4976635;28;20198;-84
2023/07/08 07:21:44;;;;;;;5.10;4.80;;;35.90;48.20;;;;;;4979311;28;20298;-82
2023/07/08 07:24:11;;;;;;;5.13;4.93;;;36.20;47.50;;;;;;4966808;28;20200;-83
2023/07/08 07:26:37;;;;;;;4.93;4.73;;;36.00;47.20;;;;;;4970533;28;20190;-82
2023/07/08 07:29:03;;;;;;;4.80;4.60;;;36.40;46.90;;;;;;4981396;28;20489;-84
2023/07/08 07:31:29;;;;;;;5.27;4.80;;;36.80;46.40;;;;;;4975643;28;20206;-84
2023/07/08 07:33:58;;;;;;;5.73;5.43;;;37.00;46.50;;;;;;4972454;28;20178;-84
2023/07/08 07:36:24;;;;;;;5.23;4.93;;;37.20;46.30;;;;;;4975427;28;20429;-83
2023/07/08 07:38:49;;;;;;;5.27;5.10;;;37.40;45.70;;;;;;4980835;28;20913;-82
2023/07/08 07:41:15;;;;;;;5.30;4.97;;;37.70;44.80;;;;;;4980983;28;20297;-84
2023/07/08 07:43:41;;;;;;;5.20;5.10;;;37.70;44.50;;;;;;4982142;28;20181;-85
2023/07/08 07:46:07;;;;;;;5.13;4.90;;;37.80;44.20;;;;;;4977437;28;20197;-83
2023/07/08 07:48:33;;;;;;;6.07;5.67;;;37.80;43.50;;;;;;4977732;28;20178;-84
2023/07/08 07:50:59;;;;;;;4.93;4.73;;;37.60;43.70;;;;;;4964392;28;20952;-82
2023/07/08 07:53:25;;;;;;;5.77;5.67;;;37.90;43.40;;;;;;4968592;28;20528;-81
2023/07/08 07:55:59;;;;;;;4.90;4.80;;;38.00;42.60;;;;;;4965246;28;20209;-83
2023/07/08 07:58:24;;;;;;;4.93;4.83;;;38.10;43.00;;;;;;4971234;28;20186;-82
2023/07/08 08:00:53;;;;;;;5.10;4.90;;;38.40;43.10;;;;;;4971813;28;20870;-83
2023/07/08 08:03:20;;;;;;;5.47;5.10;;;38.60;43.00;;;;;;4978021;28;20185;-84
2023/07/08 08:05:46;;;;;;;6.40;5.90;;;38.50;42.40;;;;;;4973060;28;20449;-83
2023/07/08 08:08:11;;;;;;;6.90;6.60;;;38.50;37.50;;;;;;4976296;28;20441;-84
2023/07/08 08:10:37;;;;;;;7.47;5.80;;;38.40;37.00;;;;;;4966130;28;20485;-84
2023/07/08 08:13:03;;;;;;;5.77;5.50;;;38.50;40.00;;;;;;4966895;28;20205;-84
2023/07/08 08:15:29;;;;;;;7.03;6.50;;;39.20;39.80;;;;;;4964504;28;20203;-83
2023/07/08 08:17:55;;;;;;;5.97;5.67;;;39.80;36.20;;;;;;4970810;28;20221;-83
2023/07/08 08:20:23;;;;;;;7.10;6.80;;;40.00;36.20;;;;;;4967407;28;20472;-83
2023/07/08 08:22:49;;;;;;;6.40;6.20;;;37.60;35.30;;;;;;4966547;28;20500;-84
2023/07/08 08:25:16;;;;;;;7.17;6.63;;;37.30;37.00;;;;;;4989356;28;20456;-83
2023/07/08 08:27:41;;;;;;;7.00;6.70;;;37.10;36.90;;;;;;4976966;28;20461;-83
2023/07/08 08:30:08;;;;;;;6.40;6.10;;;37.60;36.70;;;;;;4970404;28;20429;-85
2023/07/08 08:32:33;;;;;;;6.50;6.20;;;37.40;35.60;;;;;;4960282;28;20209;-85
2023/07/08 08:34:59;;;;;;;6.60;6.40;;;36.70;36.00;;;;;;4973526;28;20488;-83
2023/07/08 08:37:25;;;;;;;7.20;6.90;;;36.20;36.90;;;;;;4970335;28;20634;-84
2023/07/08 08:39:50;;;;;;;7.10;6.70;;;36.10;37.00;;;;;;4978636;28;20202;-83
2023/07/08 08:42:43;;;;;;;7.60;7.30;;;36.50;36.90;;;;;;4976852;28;20283;-84
2023/07/08 08:45:14;;;;;;;6.40;6.00;;;36.20;35.60;;;;;;4968620;28;20207;-83
2023/07/08 08:47:48;;;;;;;6.20;5.97;;;36.40;36.20;;;;;;4976541;28;20413;-80
2023/07/08 08:50:32;;;;;;;6.27;5.97;;;36.40;36.20;;;;;;4979918;28;20445;-81
2023/07/08 08:53:02;;;;;;;6.60;6.40;;;36.60;35.80;;;;;;4982146;28;20436;-80
2023/07/08 08:55:28;;;;;;;6.20;5.90;;;36.30;36.60;;;;;;4955014;28;20449;-82
2023/07/08 08:58:00;;;;;;;7.07;6.77;;;36.70;37.40;;;;;;4966158;28;20440;-82
2023/07/08 09:00:48;;;;;;;6.67;6.17;;;36.20;36.50;;;;;;4963829;28;20983;-83
2023/07/08 09:03:21;;;;;;;6.60;6.20;;;37.00;36.40;;;;;;4963104;28;20421;-82
2023/07/08 09:05:47;;;;;;;6.13;5.97;;;37.50;35.90;;;;;;4950734;28;20932;-82
2023/07/08 09:08:21;;;;;;;6.50;6.23;;;38.50;36.40;;;;;;4966539;28;20448;-83
2023/07/08 09:11:13;;;;;;;6.23;5.83;;;39.60;35.40;;;;;;4966820;28;20201;-80
2023/07/08 09:13:38;;;;;;;5.97;5.83;;;39.60;34.80;;;;;;4953843;28;20593;-81
2023/07/08 09:16:15;;;;;;;6.20;6.00;;;38.70;35.50;;;;;;4963593;28;20541;-81
2023/07/08 09:19:05;;;;;;;5.93;5.73;;;38.10;35.60;;;;;;4953456;28;20206;-82
2023/07/08 09:21:40;;;;;;;6.10;5.80;;;38.30;35.80;;;;;;4962991;28;20472;-83
2023/07/08 09:24:15;;;;;;;5.80;5.70;;;39.30;35.30;;;;;;4962735;28;20471;-83
2023/07/08 09:26:41;;;;;;;6.13;5.83;;;40.10;35.00;;;;;;4963424;28;20433;-82
2023/07/08 09:29:10;;;;;;;6.03;5.73;;;40.50;35.00;;;;;;4960265;28;20455;-82
2023/07/08 09:31:42;;;;;;;6.77;6.30;;;41.10;33.90;;;;;;4965760;28;20905;-83
2023/07/08 09:34:17;;;;;;;5.40;5.10;;;41.40;34.30;;;;;;4967282;28;20458;-84
2023/07/08 09:36:47;;;;;;;4.93;4.80;;;42.20;33.90;;;;;;4969588;28;20428;-84
2023/07/08 09:39:16;;;;;;;5.40;5.00;;;42.40;33.80;;;;;;4968018;28;20505;-84
2023/07/08 09:41:44;;;;;;;5.20;4.80;;;42.60;33.20;;;;;;4961680;28;20521;-84
2023/07/08 09:44:26;;;;;;;5.33;5.03;;;42.90;33.00;;;;;;4962380;28;20481;-83
2023/07/08 09:46:53;;;;;;;4.87;4.67;;;43.00;32.50;;;;;;4947959;28;20543;-84
2023/07/08 09:49:32;;;;;;;4.73;4.53;;;42.70;32.50;;;;;;4969562;28;20854;-85
2023/07/08 09:51:59;;;;;;;4.03;3.93;;;42.40;33.00;;;;;;4971998;28;20421;-83
2023/07/08 09:54:26;;;;;;;5.10;4.80;;;42.20;33.00;;;;;;4970181;28;20936;-84
2023/07/08 09:56:57;;;;;;;5.13;5.03;;;41.20;33.10;;;;;;4968306;28;20476;-83
2023/07/08 09:59:29;;;;;;;5.17;4.70;;;40.70;33.20;;;;;;4967612;28;20790;-82
2023/07/08 10:01:55;;;;;;;4.40;4.30;;;41.10;33.20;;;;;;4975987;28;20576;-84
2023/07/08 10:04:21;;;;;;;5.60;5.30;;;41.50;33.40;;;;;;4968285;28;20472;-84
2023/07/08 10:06:48;;;;;;;4.67;4.57;;;41.90;33.20;;;;;;4971640;28;20498;-85
2023/07/08 10:09:20;;;;;;;4.60;4.50;;;41.90;32.90;;;;;;4972288;28;20463;-84
2023/07/08 10:11:54;;;;;;;3.97;3.97;;;42.40;32.70;;;;;;4969924;28;20413;-83
2023/07/08 10:14:36;;;;;;;5.20;5.00;;;41.80;32.60;;;;;;4952242;28;20440;-82
2023/07/08 10:17:01;;;;;;;5.20;4.90;;;41.30;32.70;;;;;;4974618;28;20463;-83
2023/07/08 10:19:27;;;;;;;4.50;4.40;;;40.90;32.90;;;;;;4964576;28;20451;-82
2023/07/08 10:22:11;;;;;;;4.33;4.03;;;40.70;33.70;;;;;;4963601;28;20218;-82
2023/07/08 10:25:02;;;;;;;4.03;3.93;;;41.60;33.10;;;;;;4950331;28;20441;-82
2023/07/08 10:27:33;;;;;;;4.70;4.30;;;42.50;33.00;;;;;;4969250;28;20528;-84
2023/07/08 10:30:25;;;;;;;4.63;4.50;;;43.60;32.00;;;;;;4968070;28;20454;-82
2023/07/08 10:33:16;;;;;;;4.40;4.00;;;44.10;32.20;;;;;;4959623;28;20426;-84
2023/07/08 10:36:01;;;;;;;3.77;3.77;;;44.40;31.90;;;;;;4972527;28;20426;-83
2023/07/08 10:38:57;;;;;;;3.70;3.60;;;44.40;31.70;;;;;;4971871;28;20441;-83
2023/07/08 10:41:33;;;;;;;4.20;3.90;;;44.30;31.70;;;;;;4976717;28;20480;-82
2023/07/08 10:44:18;;;;;;;3.40;3.30;;;44.30;31.50;;;;;;4978318;28;20441;-83
2023/07/08 10:47:12;;;;;;;4.00;3.90;;;44.00;32.00;;;;;;4959863;28;20848;-83
2023/07/08 10:49:50;;;;;;;4.03;3.63;;;43.80;31.60;;;;;;4969982;28;20525;-82
2023/07/08 10:52:16;;;;;;;4.30;4.03;;;43.40;31.60;;;;;;4980279;28;20506;-82
2023/07/08 10:55:40;;;;;;;4.17;4.07;;;42.90;31.30;;;;;;4971069;28;20977;-83
2023/07/08 10:58:27;;;;;;;4.60;4.33;;;43.30;31.50;;;;;;4912818;28;20607;-83
2023/07/08 11:01:23;;;;;;;4.63;4.40;;;42.90;31.10;;;;;;4969401;28;20490;-84
2023/07/08 11:03:57;;;;;;;4.33;4.23;;;42.90;31.00;;;;;;4973621;28;20430;-84
2023/07/08 11:06:46;;;;;;;3.90;3.80;;;42.70;31.10;;;;;;4958912;28;20544;-83
2023/07/08 11:09:20;;;;;;;3.80;3.70;;;42.40;30.80;;;;;;4968771;28;21001;-86
2023/07/08 11:12:16;;;;;;;4.10;3.83;;;42.30;30.90;;;;;;4986888;28;20475;-83
2023/07/08 11:15:23;;;;;;;3.40;3.20;;;42.00;31.60;;;;;;4983718;28;20421;-85
2023/07/08 11:18:10;;;;;;;4.23;4.17;;;43.10;31.50;;;;;;4979379;28;20501;-85
2023/07/08 11:20:56;;;;;;;3.50;3.50;;;43.70;31.10;;;;;;4977814;28;20552;-86
2023/07/08 11:23:33;;;;;;;3.60;3.50;;;43.70;31.00;;;;;;4945856;28;20479;-81
2023/07/08 11:26:32;;;;;;;4.43;4.23;;;44.10;31.20;;;;;;4971794;28;20426;-83
2023/07/08 11:28:59;;;;;;;3.90;3.80;;;44.10;31.10;;;;;;4964818;28;20477;-83
2023/07/08 11:31:30;;;;;;;4.13;3.97;;;43.80;31.20;;;;;;4968538;28;20436;-82
2023/07/08 11:33:56;;;;;;;3.87;3.60;;;44.50;31.30;;;;;;4955543;28;20443;-82
2023/07/08 11:36:27;;;;;;;4.03;3.83;;;45.40;31.10;;;;;;4964295;28;20514;-83
2023/07/08 11:38:57;;;;;;;3.80;3.77;;;46.00;31.00;;;;;;4967054;28;20450;-82
2023/07/08 11:41:28;;;;;;;4.57;4.30;;;45.90;30.00;;;;;;4968811;28;20535;-81
2023/07/08 11:43:58;;;;;;;4.03;3.80;;;45.50;30.00;;;;;;4972136;28;20457;-83
2023/07/08 11:46:28;;;;;;;4.63;4.50;;;45.80;30.50;;;;;;4980862;28;20812;-82
2023/07/08 11:48:57;;;;;;;4.30;4.00;;;44.70;30.00;;;;;;4975298;28;20449;-84
2023/07/08 11:51:29;;;;;;;4.40;4.30;;;45.40;30.60;;;;;;4958376;28;20446;-83
2023/07/08 11:54:21;;;;;;;3.90;3.70;;;45.30;30.30;;;;;;4968532;28;20507;-80
2023/07/08 11:57:04;;;;;;;6.00;5.67;;;44.10;30.00;;;;;;4939181;28;20762;-83
2023/07/08 11:59:35;;;;;;;3.97;3.87;;;43.70;30.40;;;;;;4961342;28;20474;-82
2023/07/08 12:02:13;;;;;;;4.53;4.00;;;44.70;30.40;;;;;;4965349;28;21040;-83
2023/07/08 12:05:13;;;;;;;4.53;4.43;;;45.40;30.50;;;;;;4957473;28;20457;-82
2023/07/08 12:07:46;;;;;;;4.13;3.80;;;45.40;30.50;;;;;;4938688;28;20795;-83
2023/07/08 12:10:16;;;;;;;4.40;4.23;;;45.20;30.20;;;;;;4963114;28;20433;-83
2023/07/08 12:12:43;;;;;;;4.17;4.07;;;45.60;30.50;;;;;;4962093;28;20432;-84
2023/07/08 12:15:16;;;;;;;4.10;4.00;;;44.90;29.50;;;;;;4967679;28;20476;-84
2023/07/08 12:17:42;;;;;;;4.20;4.00;;;43.80;30.00;;;;;;4964920;28;20441;-83
2023/07/08 12:20:19;;;;;;;4.17;3.90;;;44.60;30.00;;;;;;4962285;28;20522;-82
2023/07/08 12:22:45;;;;;;;4.17;4.00;;;44.40;30.00;;;;;;4955395;28;20489;-82
2023/07/08 12:25:19;;;;;;;3.90;3.90;;;45.00;29.90;;;;;;4970030;28;20436;-83
2023/07/08 12:27:46;;;;;;;3.80;3.60;;;45.50;30.00;;;;;;4971990;28;20223;-82
2023/07/08 12:30:13;;;;;;;4.03;3.80;;;44.60;30.00;;;;;;4969192;28;20446;-82
2023/07/08 12:32:40;;;;;;;3.83;3.77;;;43.60;30.10;;;;;;4969857;28;20963;-82
2023/07/08 12:35:24;;;;;;;5.00;4.03;;;43.70;30.20;;;;;;4968615;28;20435;-83
2023/07/08 12:37:59;;;;;;;4.30;4.10;;;43.90;29.80;;;;;;4963559;28;20701;-81
2023/07/08 12:40:27;;;;;;;3.13;3.10;;;44.60;29.50;;;;;;4974390;28;20425;-81
2023/07/08 12:42:54;;;;;;;3.30;3.20;;;44.80;29.40;;;;;;4973135;28;20467;-82
2023/07/08 12:45:22;;;;;;;3.63;3.43;;;45.10;29.60;;;;;;4979893;28;20442;-82
2023/07/08 12:47:48;;;;;;;3.73;3.53;;;45.70;29.60;;;;;;4976093;28;20465;-81
2023/07/08 12:50:15;;;;;;;4.07;3.97;;;45.90;29.60;;;;;;4969705;28;21013;-82
2023/07/08 12:52:46;;;;;;;3.97;3.90;;;46.40;29.70;;;;;;4966197;28;20493;-80
2023/07/08 12:55:14;;;;;;;4.43;4.13;;;45.50;29.50;;;;;;4942769;28;20442;-81
2023/07/08 12:57:42;;;;;;;4.20;4.10;;;45.00;29.60;;;;;;4967980;28;20437;-80